AHB weather

Abha Regional Airport
Abha, Asir Region, Saudi Arabia

Public forecast

Using degrees Celsius for public forecast. Weather courtesy of forecast.io.

Current aviation weather report (METAR) for Abha Regional Airport

Retrieved 2020/07/12 10:00 UTC (10 minutes ago):

OEAB 121000Z 22008KT 9999 SCT020 FEW025CB SCT070 30/09 Q1018 NOSIG

Aviation forecast (TAF) for Abha Regional Airport

Forecast is more than 6 hours old.

Retrieved 2020-07-12 00:03 UTC (10 hours ago):

TAF TAF OEAB 112300Z 1200/1306 36006KT 9999 FEW020 BECMG 1206/1208 32020KT BECMG 1218/1220 27008KT